createdAt,value
2023-03-13T00:03:55.543Z,4.49
2023-03-13T00:08:50.687Z,5.08
2023-03-13T00:13:44.578Z,5.13
2023-03-13T00:18:38.156Z,4.98
2023-03-13T00:23:32.594Z,4.74
2023-03-13T00:28:32.337Z,4.90
2023-03-13T00:33:25.881Z,4.52
2023-03-13T00:38:19.354Z,4.84
2023-03-13T00:43:12.964Z,4.08
2023-03-13T00:48:09.997Z,4.79
2023-03-13T00:53:03.518Z,4.53
2023-03-13T00:57:56.981Z,4.31
2023-03-13T01:02:50.974Z,3.66
2023-03-13T01:07:45.960Z,4.24
2023-03-13T01:12:39.297Z,3.48
2023-03-13T01:17:32.687Z,4.21
2023-03-13T01:22:27.672Z,4.09
2023-03-13T01:27:22.576Z,3.43
2023-03-13T01:32:16.056Z,3.28
2023-03-13T01:37:09.362Z,2.49
2023-03-13T01:42:04.342Z,3.63
2023-03-13T01:46:59.383Z,3.24
2023-03-13T01:51:56.617Z,3.17
2023-03-13T01:56:52.952Z,3.27
2023-03-13T02:01:48.738Z,3.55
2023-03-13T02:06:46.580Z,3.46
2023-03-13T02:11:49.281Z,3.61
2023-03-13T02:16:47.848Z,3.53
2023-03-13T02:21:47.544Z,3.74
2023-03-13T02:26:42.259Z,3.59
2023-03-13T02:31:36.228Z,3.72
2023-03-13T02:36:32.345Z,3.70
2023-03-13T02:41:26.957Z,2.42
2023-03-13T02:46:23.953Z,3.50
2023-03-13T02:51:26.859Z,3.02
2023-03-13T02:56:25.547Z,3.09
2023-03-13T03:01:20.001Z,2.88
2023-03-13T03:06:15.143Z,2.57
2023-03-13T03:11:09.563Z,2.72
2023-03-13T03:16:08.144Z,2.63
2023-03-13T03:21:01.527Z,2.56
2023-03-13T03:25:56.446Z,1.97
2023-03-13T03:30:49.731Z,1.87
2023-03-13T03:35:43.098Z,1.83
2023-03-13T03:40:36.708Z,1.56
2023-03-13T03:45:31.367Z,1.44
2023-03-13T03:50:24.934Z,1.61
2023-03-13T03:55:24.034Z,1.33
2023-03-13T04:00:19.281Z,1.85
2023-03-13T04:05:19.323Z,2.39
2023-03-13T04:10:13.591Z,2.20
2023-03-13T04:15:13.842Z,2.52
2023-03-13T04:20:08.561Z,2.65
2023-03-13T04:25:03.513Z,2.17
2023-03-13T04:29:58.773Z,2.36
2023-03-13T04:34:52.209Z,2.96
2023-03-13T04:40:09.373Z,2.97
2023-03-13T04:45:13.131Z,3.14
2023-03-13T04:50:47.192Z,2.68
2023-03-13T04:55:56.181Z,2.70
2023-03-13T05:01:22.177Z,2.25
2023-03-13T05:06:37.749Z,2.13
2023-03-13T05:11:44.419Z,2.23
2023-03-13T05:16:56.874Z,2.56
2023-03-13T05:22:13.227Z,2.86
2023-03-13T05:27:39.232Z,1.72
2023-03-13T05:32:51.994Z,3.04
2023-03-13T05:38:04.593Z,2.77
2023-03-13T05:43:34.504Z,2.14
2023-03-13T05:48:46.606Z,2.96
2023-03-13T05:53:58.577Z,2.62
2023-03-13T05:58:53.515Z,3.44
2023-03-13T06:04:25.512Z,3.67
2023-03-13T06:09:18.951Z,3.81
2023-03-13T06:14:16.988Z,3.91
2023-03-13T06:19:20.731Z,4.04
2023-03-13T06:24:13.946Z,4.13
2023-03-13T06:29:07.139Z,4.37
2023-03-13T06:34:01.798Z,4.06
2023-03-13T06:38:55.011Z,4.51
2023-03-13T06:43:48.155Z,4.71
2023-03-13T06:48:41.420Z,5.00
2023-03-13T06:53:36.054Z,5.18
2023-03-13T06:58:32.880Z,5.36
2023-03-13T07:03:26.471Z,5.51
2023-03-13T07:08:19.682Z,5.43
2023-03-13T07:13:14.368Z,5.71
2023-03-13T07:18:07.677Z,5.92
2023-03-13T07:23:00.847Z,5.97
2023-03-13T07:27:54.219Z,6.30
2023-03-13T07:32:49.005Z,6.26
2023-03-13T07:37:53.663Z,6.60
2023-03-13T07:42:55.777Z,6.73
2023-03-13T07:47:50.448Z,6.87
2023-03-13T07:52:43.729Z,6.99
2023-03-13T07:57:36.972Z,7.02
2023-03-13T08:02:30.369Z,7.37
2023-03-13T08:07:25.679Z,7.51
2023-03-13T08:12:18.962Z,6.99
2023-03-13T08:17:12.546Z,7.41
2023-03-13T08:22:07.867Z,8.30
2023-03-13T08:27:05.018Z,7.93
2023-03-13T08:32:01.198Z,8.68
2023-03-13T08:36:54.461Z,8.66
2023-03-13T08:41:48.325Z,8.92
2023-03-13T08:46:44.090Z,9.27
2023-03-13T08:51:37.664Z,9.05
2023-03-13T08:56:38.634Z,9.13
2023-03-13T09:01:35.604Z,10.83
2023-03-13T09:06:33.582Z,11.63
2023-03-13T09:11:27.383Z,12.57
2023-03-13T09:16:24.560Z,13.14
2023-03-13T09:21:23.384Z,14.05
2023-03-13T09:26:22.615Z,15.13
2023-03-13T09:31:18.708Z,15.71
2023-03-13T09:36:13.142Z,16.00
2023-03-13T09:41:21.826Z,16.57
2023-03-13T09:46:27.107Z,16.25
2023-03-13T09:51:29.287Z,16.08
2023-03-13T09:56:26.505Z,16.22
2023-03-13T10:01:24.007Z,15.81
2023-03-13T10:06:21.255Z,15.99
2023-03-13T10:11:27.042Z,15.88
2023-03-13T10:16:28.215Z,15.48
2023-03-13T10:21:24.483Z,15.23
2023-03-13T10:26:22.810Z,15.84
2023-03-13T10:31:26.079Z,15.93
2023-03-13T10:36:21.069Z,16.17
2023-03-13T10:41:32.457Z,16.38
2023-03-13T10:46:32.417Z,16.29
2023-03-13T10:51:34.813Z,15.88
2023-03-13T10:56:31.711Z,15.87
2023-03-13T11:01:32.672Z,15.57
2023-03-13T11:06:31.359Z,15.73
2023-03-13T11:11:27.772Z,15.96
2023-03-13T11:16:23.663Z,16.02
2023-03-13T11:21:25.502Z,16.28
2023-03-13T11:26:28.193Z,16.64
2023-03-13T11:31:26.040Z,17.13
2023-03-13T11:36:28.900Z,17.35
2023-03-13T11:41:38.675Z,17.92
2023-03-13T11:46:56.019Z,18.04
2023-03-13T11:52:02.074Z,19.08
2023-03-13T11:56:58.520Z,19.62
2023-03-13T12:01:57.174Z,19.09
2023-03-13T12:06:58.128Z,19.89
2023-03-13T12:12:03.479Z,19.85
2023-03-13T12:17:01.468Z,19.45
2023-03-13T12:21:59.638Z,19.77
2023-03-13T12:26:57.285Z,19.97
2023-03-13T12:31:54.826Z,19.28
2023-03-13T12:36:52.847Z,20.20
2023-03-13T12:41:55.023Z,20.83
2023-03-13T12:46:56.679Z,20.99
2023-03-13T12:52:07.959Z,21.30
2023-03-13T12:57:14.521Z,21.31
2023-03-13T13:02:17.849Z,22.03
2023-03-13T13:07:26.935Z,22.52
2023-03-13T13:12:26.571Z,22.83
2023-03-13T13:17:27.721Z,23.92
2023-03-13T13:22:52.464Z,24.64
2023-03-13T13:27:54.148Z,23.83
2023-03-13T13:32:48.921Z,23.28
2023-03-13T13:37:42.411Z,21.92
2023-03-13T13:42:48.180Z,21.56
2023-03-13T13:47:45.503Z,21.78
2023-03-13T13:52:39.643Z,21.46
2023-03-13T13:57:36.125Z,21.40
2023-03-13T14:02:35.509Z,21.48
2023-03-13T14:07:48.383Z,21.43
2023-03-13T14:12:41.730Z,21.72
2023-03-13T14:17:40.846Z,21.37
2023-03-13T14:22:51.052Z,20.86
2023-03-13T14:27:45.393Z,20.19
2023-03-13T14:32:42.172Z,19.44
2023-03-13T14:37:36.988Z,18.60
2023-03-13T14:42:40.336Z,18.45
2023-03-13T14:47:36.087Z,17.78
2023-03-13T14:52:31.521Z,17.15
2023-03-13T14:57:27.623Z,16.52
2023-03-13T15:02:25.181Z,15.94
2023-03-13T15:07:20.798Z,15.70
2023-03-13T15:12:16.796Z,15.17
2023-03-13T15:17:22.177Z,14.75
2023-03-13T15:22:18.158Z,14.32
2023-03-13T15:27:18.941Z,13.87
2023-03-13T15:32:27.502Z,13.48
2023-03-13T15:37:35.295Z,13.63
2023-03-13T15:42:28.567Z,13.45
2023-03-13T15:47:23.339Z,13.29
2023-03-13T15:52:19.216Z,12.24
2023-03-13T15:57:15.928Z,12.64
2023-03-13T16:02:15.600Z,12.69
2023-03-13T16:07:11.581Z,11.70
2023-03-13T16:12:05.257Z,12.32
2023-03-13T16:17:00.601Z,11.79
2023-03-13T16:21:56.565Z,11.51
2023-03-13T16:26:52.723Z,11.44
2023-03-13T16:31:46.456Z,11.78
2023-03-13T16:36:42.710Z,11.54
2023-03-13T16:41:40.948Z,11.73
2023-03-13T16:46:38.075Z,11.21
2023-03-13T16:51:37.392Z,11.49
2023-03-13T16:56:34.897Z,11.21
2023-03-13T17:01:30.157Z,11.27
2023-03-13T17:06:25.297Z,10.18
2023-03-13T17:11:21.449Z,10.58
2023-03-13T17:16:18.858Z,10.64
2023-03-13T17:21:17.903Z,10.15
2023-03-13T17:26:24.088Z,10.79
2023-03-13T17:31:21.240Z,10.69
2023-03-13T17:36:20.421Z,10.42
2023-03-13T17:41:15.965Z,10.09
2023-03-13T17:46:20.265Z,10.28
2023-03-13T17:51:19.207Z,9.28
2023-03-13T17:56:29.555Z,10.15
2023-03-13T18:01:25.844Z,9.55
2023-03-13T18:06:25.200Z,10.08
2023-03-13T18:11:19.468Z,9.64
2023-03-13T18:16:25.457Z,9.87
2023-03-13T18:21:19.028Z,9.64
2023-03-13T18:26:24.024Z,9.26
2023-03-13T18:31:17.572Z,9.66
2023-03-13T18:36:20.128Z,9.03
2023-03-13T18:41:15.530Z,9.57
2023-03-13T18:46:15.886Z,9.20
2023-03-13T18:51:12.546Z,9.23
2023-03-13T18:56:17.198Z,8.97
2023-03-13T19:01:13.957Z,9.55
2023-03-13T19:06:21.896Z,9.28
2023-03-13T19:11:17.391Z,9.16
2023-03-13T19:16:16.139Z,9.47
2023-03-13T19:21:17.470Z,8.90
2023-03-13T19:26:16.984Z,8.76
2023-03-13T19:31:10.269Z,8.17
2023-03-13T19:36:03.636Z,8.10
2023-03-13T19:41:04.873Z,7.80
2023-03-13T19:46:02.248Z,7.61
2023-03-13T19:50:56.946Z,7.43
2023-03-13T19:55:58.648Z,7.30
2023-03-13T20:00:52.102Z,8.62
2023-03-13T20:05:48.992Z,8.23
2023-03-13T20:10:43.729Z,8.34
2023-03-13T20:15:37.150Z,8.17
2023-03-13T20:20:30.655Z,7.73
2023-03-13T20:25:25.415Z,8.33
2023-03-13T20:30:19.173Z,7.69
2023-03-13T20:35:14.235Z,7.70
2023-03-13T20:40:09.106Z,8.22
2023-03-13T20:45:03.908Z,8.50
2023-03-13T20:49:57.708Z,8.22
2023-03-13T20:54:54.184Z,8.17
2023-03-13T20:59:47.510Z,7.83
2023-03-13T21:04:42.403Z,8.43
2023-03-13T21:09:37.667Z,7.62
2023-03-13T21:14:31.355Z,8.25
2023-03-13T21:19:27.728Z,7.58
2023-03-13T21:24:22.438Z,7.97
2023-03-13T21:29:16.010Z,7.78
2023-03-13T21:34:10.793Z,7.28
2023-03-13T21:39:09.416Z,6.88
2023-03-13T21:44:04.841Z,7.69
2023-03-13T21:48:58.436Z,7.83
2023-03-13T21:53:53.643Z,7.83
2023-03-13T21:58:47.227Z,7.04
2023-03-13T22:03:42.415Z,7.52
2023-03-13T22:08:36.098Z,6.91
2023-03-13T22:13:29.370Z,6.54
2023-03-13T22:18:22.824Z,6.93
2023-03-13T22:23:18.019Z,7.11
2023-03-13T22:28:12.155Z,7.62
2023-03-13T22:33:12.548Z,7.63
2023-03-13T22:38:06.466Z,7.04
2023-03-13T22:43:01.352Z,7.10
2023-03-13T22:47:54.819Z,7.52
2023-03-13T22:52:48.121Z,7.49
2023-03-13T22:57:41.987Z,7.06
2023-03-13T23:02:36.742Z,7.33
2023-03-13T23:07:32.447Z,7.05
2023-03-13T23:12:26.127Z,5.72
2023-03-13T23:17:19.486Z,7.05
2023-03-13T23:22:17.902Z,6.93
2023-03-13T23:27:13.908Z,6.87
2023-03-13T23:32:07.698Z,7.13
2023-03-13T23:37:00.986Z,7.16
2023-03-13T23:41:56.320Z,6.99
2023-03-13T23:46:52.813Z,6.78
2023-03-13T23:51:46.760Z,7.05
2023-03-13T23:56:42.627Z,5.88
